IE-0002 weather

CLOSED Reeroe Airport
Caherciveen, County Kerry, Ireland

Public forecast

Using degrees Celsius for public forecast. Weather courtesy of forecast.io.

METAR (pilot weather report)

Report is more than 6 hours old.

Closest report is Kerry Airport, 30.1 nm (55.8 km) ENE. Retrieved 2019/06/26 19:30 UTC (10 hours ago):

EIKY 261930Z 06010KT 030V090 9999 BKN037 21/13 Q1027

TAF (pilot weather forecast)

Forecast is more than 12 hours old.

Closest forecast is Cork Airport, 64.8 nm (120.0 km) E. Retrieved 2019/06/26 00:11 UTC (1 day ago):

TAF EICK 262300Z 2700/2724 05013KT 9999 FEW020 SCT040 PROB30 TEMPO 2700/2702 06014G25KT BECMG 2706/2708 08015KT TEMPO 2708/2722 09017G29KT BECMG 2722/2724 10020G30KT